Noble Ace — 2ELO7 — position and weather

sailwx.info

Track history (hours):
 
Tides and Currents Weather Stations Pressure Air Temp Water Temp Dewpoint Dewpoint Depression Visibility Wind Speed Wind Dir Waves Ship Positions

Noble Ace

Last reported at 2017-Sep-05 16:12 UTC. Time now 2017-Sep-24 14:21 UTC.
Position S 27°55' E 033°14'.
Warning: this ship's position is 18 days out of date.

Length 199 m; draft 8.4 m.

Type: Ship. MMSI: 235086166.

Date/timePositionNaut miles runAvg speedWind from/ knotsBaromVisibWave heightAir tempDewpointWater temp
2017-Sep-05 16:12S 27°55' E 033°14'414.7
2017-Sep-05 15:55S 27°58' E 033°12'714.6
2017-Sep-05 15:25S 28°05' E 033°07'614.4
2017-Sep-05 15:00S 28°10' E 033°04'714.4
2017-Sep-05 14:30S 28°16' E 032°60'714.4
2017-Sep-05 14:00S 28°22' E 032°55'714.3
2017-Sep-05 13:30S 28°28' E 032°51'714.0
2017-Sep-05 13:01S 28°34' E 032°47'713.6
2017-Sep-05 12:29S 28°40' E 032°43'2613.1
2017-Sep-05 10:30S 29°01' E 032°26'612.8
2017-Sep-05 10:00S 29°06' E 032°22'612.5
2017-Sep-05 09:30S 29°12' E 032°17'612.6
2017-Sep-05 09:00S 29°17' E 032°13'612.3
2017-Sep-05 08:30S 29°22' E 032°09'612.4
2017-Sep-05 08:00S 29°27' E 032°05'612.5
2017-Sep-05 07:30S 29°32' E 032°01'612.9
2017-Sep-05 07:00S 29°37' E 031°56'713.1
2017-Sep-05 06:30S 29°42' E 031°52'713.0
2017-Sep-05 06:00S 29°48' E 031°48'612.8
2017-Sep-05 05:30S 29°53' E 031°44'612.7
2017-Sep-05 05:00S 29°58' E 031°39'612.9
2017-Sep-05 04:30S 30°03' E 031°34'612.9
2017-Sep-05 04:00S 30°08' E 031°30'713.1
2017-Sep-05 03:30S 30°14' E 031°26'713.2
2017-Sep-05 03:00S 30°19' E 031°22'713.0
2017-Sep-05 02:30S 30°24' E 031°17'713.2
2017-Sep-05 02:00S 30°30' E 031°12'913.7
2017-Sep-05 01:20S 30°37' E 031°06'413.5
2017-Sep-05 01:00S 30°41' E 031°03'713.2
2017-Sep-05 00:28S 30°47' E 030°58'613.0
2017-Sep-05 00:00S 30°51' E 030°54'612.9
2017-Sep-04 23:30S 30°57' E 030°50'612.8
2017-Sep-04 23:00S 31°02' E 030°45'1212.9
2017-Sep-04 22:03S 31°12' E 030°37'64413.5
2017-Sep-02 22:26S 34°29' E 018°27'715.2
2017-Sep-02 21:57S 34°25' E 018°20'815.1
2017-Sep-02 21:26S 34°21' E 018°12'814.0
2017-Sep-02 20:54S 34°14' E 018°07'1014.2
2017-Sep-02 20:12S 34°05' E 018°02'314.4
2017-Sep-02 19:58S 34°02' E 018°00'714.3
2017-Sep-02 19:30S 33°56' E 017°57'  
Track history (hours):
 
Tides and Currents Weather Stations Pressure Air Temp Water Temp Dewpoint Dewpoint Depression Visibility Wind Speed Wind Dir Waves Ship Positions

Noble Ace

Last reported at 2017-Sep-05 16:12 UTC. Time now 2017-Sep-24 14:21 UTC.
Position S 27°55' E 033°14'.
Warning: this ship's position is 18 days out of date.

Length 199 m; draft 8.4 m.

Type: Ship. MMSI: 235086166.

Date/timePositionNaut miles runAvg speedWind from/ knotsBaromVisibWave heightAir tempDewpointWater temp
2017-Sep-05 16:12S 27°55' E 033°14'414.7
2017-Sep-05 15:55S 27°58' E 033°12'714.6
2017-Sep-05 15:25S 28°05' E 033°07'614.4
2017-Sep-05 15:00S 28°10' E 033°04'714.4
2017-Sep-05 14:30S 28°16' E 032°60'714.4
2017-Sep-05 14:00S 28°22' E 032°55'714.3
2017-Sep-05 13:30S 28°28' E 032°51'714.0
2017-Sep-05 13:01S 28°34' E 032°47'713.6
2017-Sep-05 12:29S 28°40' E 032°43'2613.1
2017-Sep-05 10:30S 29°01' E 032°26'612.8
2017-Sep-05 10:00S 29°06' E 032°22'612.5
2017-Sep-05 09:30S 29°12' E 032°17'612.6
2017-Sep-05 09:00S 29°17' E 032°13'612.3
2017-Sep-05 08:30S 29°22' E 032°09'612.4
2017-Sep-05 08:00S 29°27' E 032°05'612.5
2017-Sep-05 07:30S 29°32' E 032°01'612.9
2017-Sep-05 07:00S 29°37' E 031°56'713.1
2017-Sep-05 06:30S 29°42' E 031°52'713.0
2017-Sep-05 06:00S 29°48' E 031°48'612.8
2017-Sep-05 05:30S 29°53' E 031°44'612.7
2017-Sep-05 05:00S 29°58' E 031°39'612.9
2017-Sep-05 04:30S 30°03' E 031°34'612.9
2017-Sep-05 04:00S 30°08' E 031°30'713.1
2017-Sep-05 03:30S 30°14' E 031°26'713.2
2017-Sep-05 03:00S 30°19' E 031°22'713.0
2017-Sep-05 02:30S 30°24' E 031°17'713.2
2017-Sep-05 02:00S 30°30' E 031°12'913.7
2017-Sep-05 01:20S 30°37' E 031°06'413.5
2017-Sep-05 01:00S 30°41' E 031°03'713.2
2017-Sep-05 00:28S 30°47' E 030°58'613.0
2017-Sep-05 00:00S 30°51' E 030°54'612.9
2017-Sep-04 23:30S 30°57' E 030°50'612.8
2017-Sep-04 23:00S 31°02' E 030°45'1212.9
2017-Sep-04 22:03S 31°12' E 030°37'64413.5
2017-Sep-02 22:26S 34°29' E 018°27'715.2
2017-Sep-02 21:57S 34°25' E 018°20'815.1
2017-Sep-02 21:26S 34°21' E 018°12'814.0
2017-Sep-02 20:54S 34°14' E 018°07'1014.2
2017-Sep-02 20:12S 34°05' E 018°02'314.4
2017-Sep-02 19:58S 34°02' E 018°00'714.3
2017-Sep-02 19:30S 33°56' E 017°57'  

Dump ship's entire track history